sensor_id;sensor_type;location;lat;lon;timestamp;temperature;humidity
14053;DHT22;7101;51.600;7.310;2022-12-07T00:01:49;5.50;99.90
14053;DHT22;7101;51.600;7.310;2022-12-07T00:04:17;5.50;99.90
14053;DHT22;7101;51.600;7.310;2022-12-07T00:06:45;5.40;99.90
14053;DHT22;7101;51.600;7.310;2022-12-07T00:09:14;5.40;99.90
14053;DHT22;7101;51.600;7.310;2022-12-07T00:11:42;5.40;99.90
14053;DHT22;7101;51.600;7.310;2022-12-07T00:14:13;5.40;99.90
14053;DHT22;7101;51.600;7.310;2022-12-07T00:16:41;5.50;99.90
14053;DHT22;7101;51.600;7.310;2022-12-07T00:19:09;5.50;99.90
14053;DHT22;7101;51.600;7.310;2022-12-07T00:21:39;5.50;99.90
14053;DHT22;7101;51.600;7.310;2022-12-07T00:24:06;5.40;99.90
14053;DHT22;7101;51.600;7.310;2022-12-07T00:26:34;5.40;99.90
14053;DHT22;7101;51.600;7.310;2022-12-07T00:29:03;5.50;99.90
14053;DHT22;7101;51.600;7.310;2022-12-07T00:31:33;5.40;99.90
14053;DHT22;7101;51.600;7.310;2022-12-07T00:34:04;5.40;99.90
14053;DHT22;7101;51.600;7.310;2022-12-07T00:36:31;5.40;99.90
14053;DHT22;7101;51.600;7.310;2022-12-07T00:38:59;5.30;99.90
14053;DHT22;7101;51.600;7.310;2022-12-07T00:41:33;5.30;99.90
14053;DHT22;7101;51.600;7.310;2022-12-07T00:44:01;5.40;99.90
14053;DHT22;7101;51.600;7.310;2022-12-07T00:46:28;5.40;99.90
14053;DHT22;7101;51.600;7.310;2022-12-07T00:48:57;5.40;99.90
14053;DHT22;7101;51.600;7.310;2022-12-07T00:51:24;5.40;99.90
14053;DHT22;7101;51.600;7.310;2022-12-07T00:53:57;5.30;99.90
14053;DHT22;7101;51.600;7.310;2022-12-07T00:56:27;5.30;99.90
14053;DHT22;7101;51.600;7.310;2022-12-07T00:58:56;5.30;99.90
14053;DHT22;7101;51.600;7.310;2022-12-07T01:01:24;5.30;99.90
14053;DHT22;7101;51.600;7.310;2022-12-07T01:03:52;5.20;99.90
14053;DHT22;7101;51.600;7.310;2022-12-07T01:06:23;5.20;99.90
14053;DHT22;7101;51.600;7.310;2022-12-07T01:08:51;5.30;99.90
14053;DHT22;7101;51.600;7.310;2022-12-07T01:11:20;5.30;99.90
14053;DHT22;7101;51.600;7.310;2022-12-07T01:13:49;5.30;99.90
14053;DHT22;7101;51.600;7.310;2022-12-07T01:16:17;5.30;99.90
14053;DHT22;7101;51.600;7.310;2022-12-07T01:18:46;5.30;99.90
14053;DHT22;7101;51.600;7.310;2022-12-07T01:21:16;5.30;99.90
14053;DHT22;7101;51.600;7.310;2022-12-07T01:23:45;5.30;99.90
14053;DHT22;7101;51.600;7.310;2022-12-07T01:26:14;5.30;99.90
14053;DHT22;7101;51.600;7.310;2022-12-07T01:28:41;5.30;99.90
14053;DHT22;7101;51.600;7.310;2022-12-07T01:31:09;5.30;99.90
14053;DHT22;7101;51.600;7.310;2022-12-07T01:33:38;5.30;99.90
14053;DHT22;7101;51.600;7.310;2022-12-07T01:36:07;5.30;99.90
14053;DHT22;7101;51.600;7.310;2022-12-07T01:38:34;5.20;99.90
14053;DHT22;7101;51.600;7.310;2022-12-07T01:41:02;5.30;99.90
14053;DHT22;7101;51.600;7.310;2022-12-07T01:43:32;5.20;99.90
14053;DHT22;7101;51.600;7.310;2022-12-07T01:46:01;5.20;99.90
14053;DHT22;7101;51.600;7.310;2022-12-07T01:48:32;5.20;99.90
14053;DHT22;7101;51.600;7.310;2022-12-07T01:51:03;5.20;99.90
14053;DHT22;7101;51.600;7.310;2022-12-07T01:53:32;5.20;99.90
14053;DHT22;7101;51.600;7.310;2022-12-07T01:56:03;5.20;99.90
14053;DHT22;7101;51.600;7.310;2022-12-07T01:58:32;5.20;99.90
14053;DHT22;7101;51.600;7.310;2022-12-07T02:00:59;5.20;99.90
14053;DHT22;7101;51.600;7.310;2022-12-07T02:03:31;5.20;99.90
14053;DHT22;7101;51.600;7.310;2022-12-07T02:05:59;5.20;99.90
14053;DHT22;7101;51.600;7.310;2022-12-07T02:08:26;5.20;99.90
14053;DHT22;7101;51.600;7.310;2022-12-07T02:10:54;5.20;99.90
14053;DHT22;7101;51.600;7.310;2022-12-07T02:13:25;5.20;99.90
14053;DHT22;7101;51.600;7.310;2022-12-07T02:16:05;5.10;99.90
14053;DHT22;7101;51.600;7.310;2022-12-07T02:18:44;5.10;99.90
14053;DHT22;7101;51.600;7.310;2022-12-07T02:21:19;5.10;99.90
14053;DHT22;7101;51.600;7.310;2022-12-07T02:29:47;5.10;99.90
14053;DHT22;7101;51.600;7.310;2022-12-07T02:32:20;5.00;99.90
14053;DHT22;7101;51.600;7.310;2022-12-07T02:34:50;5.00;99.90
14053;DHT22;7101;51.600;7.310;2022-12-07T02:37:25;5.00;99.90
14053;DHT22;7101;51.600;7.310;2022-12-07T02:39:59;5.00;99.90
14053;DHT22;7101;51.600;7.310;2022-12-07T02:42:33;4.90;99.90
14053;DHT22;7101;51.600;7.310;2022-12-07T02:45:05;4.80;99.90
14053;DHT22;7101;51.600;7.310;2022-12-07T02:47:34;4.70;99.90
14053;DHT22;7101;51.600;7.310;2022-12-07T02:50:03;4.70;99.90
14053;DHT22;7101;51.600;7.310;2022-12-07T02:52:31;4.70;99.90
14053;DHT22;7101;51.600;7.310;2022-12-07T02:54:58;4.50;99.90
14053;DHT22;7101;51.600;7.310;2022-12-07T02:57:43;4.40;99.90
14053;DHT22;7101;51.600;7.310;2022-12-07T03:00:16;4.30;99.90
14053;DHT22;7101;51.600;7.310;2022-12-07T03:02:50;4.20;99.90
14053;DHT22;7101;51.600;7.310;2022-12-07T03:08:24;4.00;99.90
14053;DHT22;7101;51.600;7.310;2022-12-07T03:10:56;3.90;99.90
14053;DHT22;7101;51.600;7.310;2022-12-07T03:13:29;3.90;99.90
14053;DHT22;7101;51.600;7.310;2022-12-07T03:16:03;3.90;99.90
14053;DHT22;7101;51.600;7.310;2022-12-07T03:18:36;3.80;99.90
14053;DHT22;7101;51.600;7.310;2022-12-07T03:21:10;3.70;99.90
14053;DHT22;7101;51.600;7.310;2022-12-07T03:23:40;3.70;99.90
14053;DHT22;7101;51.600;7.310;2022-12-07T03:26:12;3.60;99.90
14053;DHT22;7101;51.600;7.310;2022-12-07T03:28:47;3.50;99.90
14053;DHT22;7101;51.600;7.310;2022-12-07T03:31:19;3.50;99.90
14053;DHT22;7101;51.600;7.310;2022-12-07T03:33:51;3.50;99.90
14053;DHT22;7101;51.600;7.310;2022-12-07T03:36:23;3.40;99.90
14053;DHT22;7101;51.600;7.310;2022-12-07T03:38:57;3.40;99.90
14053;DHT22;7101;51.600;7.310;2022-12-07T03:41:28;3.40;99.90
14053;DHT22;7101;51.600;7.310;2022-12-07T03:43:57;3.40;99.90
14053;DHT22;7101;51.600;7.310;2022-12-07T03:46:34;3.30;99.90
14053;DHT22;7101;51.600;7.310;2022-12-07T03:49:08;3.30;99.90
14053;DHT22;7101;51.600;7.310;2022-12-07T03:51:42;3.30;99.90
14053;DHT22;7101;51.600;7.310;2022-12-07T03:54:13;3.30;99.90
14053;DHT22;7101;51.600;7.310;2022-12-07T03:56:43;3.40;99.90
14053;DHT22;7101;51.600;7.310;2022-12-07T03:59:12;3.40;99.90
14053;DHT22;7101;51.600;7.310;2022-12-07T04:01:42;3.30;99.90
14053;DHT22;7101;51.600;7.310;2022-12-07T04:04:09;3.40;99.90
14053;DHT22;7101;51.600;7.310;2022-12-07T04:06:37;3.40;99.90
14053;DHT22;7101;51.600;7.310;2022-12-07T04:09:03;3.40;99.90
14053;DHT22;7101;51.600;7.310;2022-12-07T04:11:30;3.40;99.90
14053;DHT22;7101;51.600;7.310;2022-12-07T04:13:57;3.40;99.90
14053;DHT22;7101;51.600;7.310;2022-12-07T04:16:45;3.30;99.90
14053;DHT22;7101;51.600;7.310;2022-12-07T04:19:12;3.30;99.90
14053;DHT22;7101;51.600;7.310;2022-12-07T04:21:39;3.30;99.90
14053;DHT22;7101;51.600;7.310;2022-12-07T04:24:06;3.40;99.90
14053;DHT22;7101;51.600;7.310;2022-12-07T04:26:33;3.40;99.90
14053;DHT22;7101;51.600;7.310;2022-12-07T04:29:00;3.30;99.90
14053;DHT22;7101;51.600;7.310;2022-12-07T04:31:27;3.20;99.90
14053;DHT22;7101;51.600;7.310;2022-12-07T04:33:55;3.20;99.90
14053;DHT22;7101;51.600;7.310;2022-12-07T04:36:22;3.20;99.90
14053;DHT22;7101;51.600;7.310;2022-12-07T04:38:49;3.20;99.90
14053;DHT22;7101;51.600;7.310;2022-12-07T04:41:17;3.30;99.90
14053;DHT22;7101;51.600;7.310;2022-12-07T04:43:44;3.40;99.90
14053;DHT22;7101;51.600;7.310;2022-12-07T04:46:12;3.40;99.90
14053;DHT22;7101;51.600;7.310;2022-12-07T04:48:38;3.50;99.90
14053;DHT22;7101;51.600;7.310;2022-12-07T04:51:07;3.50;99.90
14053;DHT22;7101;51.600;7.310;2022-12-07T04:53:34;3.50;99.90
14053;DHT22;7101;51.600;7.310;2022-12-07T04:56:00;3.50;99.90
14053;DHT22;7101;51.600;7.310;2022-12-07T04:58:27;3.50;99.90
14053;DHT22;7101;51.600;7.310;2022-12-07T05:00:54;3.60;99.90
14053;DHT22;7101;51.600;7.310;2022-12-07T05:03:22;3.60;99.90
14053;DHT22;7101;51.600;7.310;2022-12-07T05:05:48;3.60;99.90
14053;DHT22;7101;51.600;7.310;2022-12-07T05:08:18;3.60;99.90
14053;DHT22;7101;51.600;7.310;2022-12-07T05:10:44;3.60;99.90
14053;DHT22;7101;51.600;7.310;2022-12-07T05:13:13;3.60;99.90
14053;DHT22;7101;51.600;7.310;2022-12-07T05:15:42;3.60;99.90
14053;DHT22;7101;51.600;7.310;2022-12-07T05:18:09;3.50;99.90
14053;DHT22;7101;51.600;7.310;2022-12-07T05:20:37;3.50;99.90
14053;DHT22;7101;51.600;7.310;2022-12-07T05:23:04;3.50;99.90
14053;DHT22;7101;51.600;7.310;2022-12-07T05:25:33;3.50;99.90
14053;DHT22;7101;51.600;7.310;2022-12-07T05:28:00;3.50;99.90
14053;DHT22;7101;51.600;7.310;2022-12-07T05:30:26;3.50;99.90
14053;DHT22;7101;51.600;7.310;2022-12-07T05:32:53;3.60;99.90
14053;DHT22;7101;51.600;7.310;2022-12-07T05:35:21;3.60;99.90
14053;DHT22;7101;51.600;7.310;2022-12-07T05:37:48;3.60;99.90
14053;DHT22;7101;51.600;7.310;2022-12-07T05:40:16;3.60;99.90
14053;DHT22;7101;51.600;7.310;2022-12-07T05:42:45;3.60;99.90
14053;DHT22;7101;51.600;7.310;2022-12-07T05:45:12;3.70;99.90
14053;DHT22;7101;51.600;7.310;2022-12-07T05:47:39;3.70;99.90
14053;DHT22;7101;51.600;7.310;2022-12-07T05:50:07;3.70;99.90
14053;DHT22;7101;51.600;7.310;2022-12-07T05:52:34;3.70;99.90
14053;DHT22;7101;51.600;7.310;2022-12-07T05:55:00;3.70;99.90
14053;DHT22;7101;51.600;7.310;2022-12-07T05:57:27;3.70;99.90
14053;DHT22;7101;51.600;7.310;2022-12-07T05:59:56;3.60;99.90
14053;DHT22;7101;51.600;7.310;2022-12-07T06:02:23;3.70;99.90
14053;DHT22;7101;51.600;7.310;2022-12-07T06:04:50;3.70;99.90
14053;DHT22;7101;51.600;7.310;2022-12-07T06:07:17;3.70;99.90
14053;DHT22;7101;51.600;7.310;2022-12-07T06:09:44;3.80;99.90
14053;DHT22;7101;51.600;7.310;2022-12-07T06:12:11;3.70;99.90
14053;DHT22;7101;51.600;7.310;2022-12-07T06:14:57;3.70;99.90
14053;DHT22;7101;51.600;7.310;2022-12-07T06:17:24;3.80;99.90
14053;DHT22;7101;51.600;7.310;2022-12-07T06:19:51;3.70;99.90
14053;DHT22;7101;51.600;7.310;2022-12-07T06:22:18;3.70;99.90
14053;DHT22;7101;51.600;7.310;2022-12-07T06:24:46;3.70;99.90
14053;DHT22;7101;51.600;7.310;2022-12-07T06:27:13;3.70;99.90
14053;DHT22;7101;51.600;7.310;2022-12-07T06:29:39;3.70;99.90
14053;DHT22;7101;51.600;7.310;2022-12-07T06:32:08;3.60;99.90
14053;DHT22;7101;51.600;7.310;2022-12-07T06:34:35;3.60;99.90
14053;DHT22;7101;51.600;7.310;2022-12-07T06:37:04;3.50;99.90
14053;DHT22;7101;51.600;7.310;2022-12-07T06:39:31;3.50;99.90
14053;DHT22;7101;51.600;7.310;2022-12-07T06:41:58;3.50;99.90
14053;DHT22;7101;51.600;7.310;2022-12-07T06:44:24;3.50;99.90
14053;DHT22;7101;51.600;7.310;2022-12-07T06:46:51;3.40;99.90
14053;DHT22;7101;51.600;7.310;2022-12-07T06:49:19;3.40;99.90
14053;DHT22;7101;51.600;7.310;2022-12-07T06:51:48;3.40;99.90
14053;DHT22;7101;51.600;7.310;2022-12-07T06:54:16;3.40;99.90
14053;DHT22;7101;51.600;7.310;2022-12-07T06:56:45;3.40;99.90
14053;DHT22;7101;51.600;7.310;2022-12-07T06:59:12;3.40;99.90
14053;DHT22;7101;51.600;7.310;2022-12-07T07:01:39;3.40;99.90
14053;DHT22;7101;51.600;7.310;2022-12-07T07:04:07;3.40;99.90
14053;DHT22;7101;51.600;7.310;2022-12-07T07:06:35;3.40;99.90
14053;DHT22;7101;51.600;7.310;2022-12-07T07:09:02;3.40;99.90
14053;DHT22;7101;51.600;7.310;2022-12-07T07:11:29;3.30;99.90
14053;DHT22;7101;51.600;7.310;2022-12-07T07:14:01;3.20;99.90
14053;DHT22;7101;51.600;7.310;2022-12-07T07:16:28;3.20;99.90
14053;DHT22;7101;51.600;7.310;2022-12-07T07:18:56;3.10;99.90
14053;DHT22;7101;51.600;7.310;2022-12-07T07:21:24;3.00;99.90
14053;DHT22;7101;51.600;7.310;2022-12-07T07:23:53;3.00;99.90
14053;DHT22;7101;51.600;7.310;2022-12-07T07:26:21;2.90;99.90
14053;DHT22;7101;51.600;7.310;2022-12-07T07:28:48;2.80;99.90
14053;DHT22;7101;51.600;7.310;2022-12-07T07:31:15;2.80;99.90
14053;DHT22;7101;51.600;7.310;2022-12-07T07:33:42;2.70;99.90
14053;DHT22;7101;51.600;7.310;2022-12-07T07:36:10;2.70;99.90
14053;DHT22;7101;51.600;7.310;2022-12-07T07:38:39;2.60;99.90
14053;DHT22;7101;51.600;7.310;2022-12-07T07:41:08;2.60;99.90
14053;DHT22;7101;51.600;7.310;2022-12-07T07:43:36;2.60;99.90
14053;DHT22;7101;51.600;7.310;2022-12-07T07:46:04;2.60;99.90
14053;DHT22;7101;51.600;7.310;2022-12-07T07:48:30;2.60;99.90
14053;DHT22;7101;51.600;7.310;2022-12-07T07:50:57;2.50;99.90
14053;DHT22;7101;51.600;7.310;2022-12-07T07:53:24;2.50;99.90
14053;DHT22;7101;51.600;7.310;2022-12-07T07:55:51;2.60;99.90
14053;DHT22;7101;51.600;7.310;2022-12-07T07:58:20;2.60;99.90
14053;DHT22;7101;51.600;7.310;2022-12-07T08:00:47;2.60;99.90
14053;DHT22;7101;51.600;7.310;2022-12-07T08:03:14;2.50;99.90
14053;DHT22;7101;51.600;7.310;2022-12-07T08:05:41;2.60;99.90
14053;DHT22;7101;51.600;7.310;2022-12-07T08:08:07;2.60;99.90
14053;DHT22;7101;51.600;7.310;2022-12-07T08:10:34;2.60;99.90
14053;DHT22;7101;51.600;7.310;2022-12-07T08:13:02;2.70;99.90
14053;DHT22;7101;51.600;7.310;2022-12-07T08:15:41;2.80;99.90
14053;DHT22;7101;51.600;7.310;2022-12-07T08:18:08;3.00;99.90
14053;DHT22;7101;51.600;7.310;2022-12-07T08:20:36;3.10;99.90
14053;DHT22;7101;51.600;7.310;2022-12-07T08:23:03;3.30;99.90
14053;DHT22;7101;51.600;7.310;2022-12-07T08:25:32;3.30;99.90
14053;DHT22;7101;51.600;7.310;2022-12-07T08:27:59;3.40;99.90
14053;DHT22;7101;51.600;7.310;2022-12-07T08:30:27;3.50;99.90
14053;DHT22;7101;51.600;7.310;2022-12-07T08:32:55;3.60;99.90
14053;DHT22;7101;51.600;7.310;2022-12-07T08:35:22;3.70;99.90
14053;DHT22;7101;51.600;7.310;2022-12-07T08:37:49;3.90;99.90
14053;DHT22;7101;51.600;7.310;2022-12-07T08:40:16;4.00;99.90
14053;DHT22;7101;51.600;7.310;2022-12-07T08:42:47;4.10;99.90
14053;DHT22;7101;51.600;7.310;2022-12-07T08:45:15;4.20;99.90
14053;DHT22;7101;51.600;7.310;2022-12-07T08:47:46;4.20;99.90
14053;DHT22;7101;51.600;7.310;2022-12-07T08:50:17;4.10;99.90
14053;DHT22;7101;51.600;7.310;2022-12-07T08:52:44;4.10;99.90
14053;DHT22;7101;51.600;7.310;2022-12-07T08:55:11;4.10;99.90
14053;DHT22;7101;51.600;7.310;2022-12-07T08:57:39;4.10;99.90
14053;DHT22;7101;51.600;7.310;2022-12-07T09:00:10;4.00;99.90
14053;DHT22;7101;51.600;7.310;2022-12-07T09:02:39;4.00;99.90
14053;DHT22;7101;51.600;7.310;2022-12-07T09:05:07;4.00;99.90
14053;DHT22;7101;51.600;7.310;2022-12-07T09:07:37;4.00;99.90
14053;DHT22;7101;51.600;7.310;2022-12-07T09:10:05;4.00;99.90
14053;DHT22;7101;51.600;7.310;2022-12-07T09:12:32;4.00;99.90
14053;DHT22;7101;51.600;7.310;2022-12-07T09:14:58;4.10;99.90
14053;DHT22;7101;51.600;7.310;2022-12-07T09:17:27;4.20;99.90
14053;DHT22;7101;51.600;7.310;2022-12-07T09:19:54;4.30;99.90
14053;DHT22;7101;51.600;7.310;2022-12-07T09:22:21;4.30;99.90
14053;DHT22;7101;51.600;7.310;2022-12-07T09:24:49;4.30;99.90
14053;DHT22;7101;51.600;7.310;2022-12-07T09:27:16;4.30;99.90
14053;DHT22;7101;51.600;7.310;2022-12-07T09:29:44;4.30;99.90
14053;DHT22;7101;51.600;7.310;2022-12-07T09:32:11;4.30;99.90
14053;DHT22;7101;51.600;7.310;2022-12-07T09:34:38;4.40;99.90
14053;DHT22;7101;51.600;7.310;2022-12-07T09:37:05;4.40;99.90
14053;DHT22;7101;51.600;7.310;2022-12-07T09:39:34;4.40;99.90
14053;DHT22;7101;51.600;7.310;2022-12-07T09:42:06;4.40;99.90
14053;DHT22;7101;51.600;7.310;2022-12-07T09:44:34;4.40;99.90
14053;DHT22;7101;51.600;7.310;2022-12-07T09:47:02;4.40;99.90
14053;DHT22;7101;51.600;7.310;2022-12-07T09:49:30;4.40;99.90
14053;DHT22;7101;51.600;7.310;2022-12-07T09:52:02;4.40;99.90
14053;DHT22;7101;51.600;7.310;2022-12-07T09:54:33;4.40;99.90
14053;DHT22;7101;51.600;7.310;2022-12-07T09:57:04;4.60;99.90
14053;DHT22;7101;51.600;7.310;2022-12-07T09:59:34;4.70;99.90
14053;DHT22;7101;51.600;7.310;2022-12-07T10:02:24;4.80;99.90
14053;DHT22;7101;51.600;7.310;2022-12-07T10:04:51;4.90;99.90
14053;DHT22;7101;51.600;7.310;2022-12-07T10:07:18;4.90;99.90
14053;DHT22;7101;51.600;7.310;2022-12-07T10:09:45;5.00;99.90
14053;DHT22;7101;51.600;7.310;2022-12-07T10:12:13;5.10;99.90
14053;DHT22;7101;51.600;7.310;2022-12-07T10:14:56;5.20;99.90
14053;DHT22;7101;51.600;7.310;2022-12-07T10:17:30;5.20;99.90
14053;DHT22;7101;51.600;7.310;2022-12-07T10:20:18;5.40;99.90
14053;DHT22;7101;51.600;7.310;2022-12-07T10:22:59;5.50;99.90
14053;DHT22;7101;51.600;7.310;2022-12-07T10:25:28;5.60;99.90
14053;DHT22;7101;51.600;7.310;2022-12-07T10:28:02;5.70;99.90
14053;DHT22;7101;51.600;7.310;2022-12-07T10:30:31;5.80;99.90
14053;DHT22;7101;51.600;7.310;2022-12-07T10:32:59;6.00;99.90
14053;DHT22;7101;51.600;7.310;2022-12-07T10:35:27;6.00;99.90
14053;DHT22;7101;51.600;7.310;2022-12-07T10:37:56;6.10;50.50
14053;DHT22;7101;51.600;7.310;2022-12-07T10:40:30;6.20;5.20
14053;DHT22;7101;51.600;7.310;2022-12-07T10:43:13;6.30;1.00
14053;DHT22;7101;51.600;7.310;2022-12-07T10:46:00;6.30;1.00
14053;DHT22;7101;51.600;7.310;2022-12-07T10:48:36;6.20;1.00
14053;DHT22;7101;51.600;7.310;2022-12-07T10:51:12;6.30;1.00
14053;DHT22;7101;51.600;7.310;2022-12-07T10:53:57;6.40;1.00
14053;DHT22;7101;51.600;7.310;2022-12-07T10:56:42;6.40;1.00
14053;DHT22;7101;51.600;7.310;2022-12-07T11:02:48;6.30;1.00
14053;DHT22;7101;51.600;7.310;2022-12-07T11:05:23;6.10;1.00
14053;DHT22;7101;51.600;7.310;2022-12-07T11:08:00;6.10;1.00
14053;DHT22;7101;51.600;7.310;2022-12-07T11:10:33;6.10;1.00
14053;DHT22;7101;51.600;7.310;2022-12-07T11:16:18;6.00;1.00
14053;DHT22;7101;51.600;7.310;2022-12-07T11:18:55;6.10;1.00
14053;DHT22;7101;51.600;7.310;2022-12-07T11:21:29;6.10;1.00
14053;DHT22;7101;51.600;7.310;2022-12-07T11:24:04;6.10;1.00
14053;DHT22;7101;51.600;7.310;2022-12-07T11:26:45;6.20;1.00
14053;DHT22;7101;51.600;7.310;2022-12-07T11:29:34;6.20;1.00
14053;DHT22;7101;51.600;7.310;2022-12-07T11:32:14;6.20;1.00
14053;DHT22;7101;51.600;7.310;2022-12-07T11:34:55;6.30;1.00
14053;DHT22;7101;51.600;7.310;2022-12-07T11:37:30;6.20;1.00
14053;DHT22;7101;51.600;7.310;2022-12-07T11:40:01;6.20;1.00
14053;DHT22;7101;51.600;7.310;2022-12-07T11:42:33;6.30;1.00
14053;DHT22;7101;51.600;7.310;2022-12-07T11:45:12;6.40;1.00
14053;DHT22;7101;51.600;7.310;2022-12-07T11:47:45;6.50;1.00
14053;DHT22;7101;51.600;7.310;2022-12-07T11:50:27;6.50;1.00
14053;DHT22;7101;51.600;7.310;2022-12-07T11:52:59;6.50;1.00
14053;DHT22;7101;51.600;7.310;2022-12-07T11:55:39;6.50;1.00
14053;DHT22;7101;51.600;7.310;2022-12-07T11:58:24;6.40;1.00
14053;DHT22;7101;51.600;7.310;2022-12-07T12:01:06;6.30;1.00
14053;DHT22;7101;51.600;7.310;2022-12-07T12:03:42;6.30;1.00
14053;DHT22;7101;51.600;7.310;2022-12-07T12:06:12;6.20;1.00
14053;DHT22;7101;51.600;7.310;2022-12-07T12:08:42;6.40;1.00
14053;DHT22;7101;51.600;7.310;2022-12-07T12:11:21;6.60;1.00
14053;DHT22;7101;51.600;7.310;2022-12-07T12:14:35;6.60;1.00
14053;DHT22;7101;51.600;7.310;2022-12-07T12:17:33;6.70;1.00
14053;DHT22;7101;51.600;7.310;2022-12-07T12:20:16;6.60;1.00
14053;DHT22;7101;51.600;7.310;2022-12-07T12:22:49;6.60;1.00
14053;DHT22;7101;51.600;7.310;2022-12-07T12:25:21;6.50;1.00
14053;DHT22;7101;51.600;7.310;2022-12-07T12:27:51;6.60;1.00
14053;DHT22;7101;51.600;7.310;2022-12-07T12:30:31;6.70;1.00
14053;DHT22;7101;51.600;7.310;2022-12-07T12:33:03;6.80;1.00
14053;DHT22;7101;51.600;7.310;2022-12-07T12:35:32;6.80;1.00
14053;DHT22;7101;51.600;7.310;2022-12-07T12:38:31;6.80;1.00
14053;DHT22;7101;51.600;7.310;2022-12-07T12:41:00;6.90;1.00
14053;DHT22;7101;51.600;7.310;2022-12-07T12:43:41;6.90;1.00
14053;DHT22;7101;51.600;7.310;2022-12-07T12:49:34;6.80;1.00
14053;DHT22;7101;51.600;7.310;2022-12-07T12:55:15;6.60;1.00
14053;DHT22;7101;51.600;7.310;2022-12-07T12:57:44;6.40;1.00
14053;DHT22;7101;51.600;7.310;2022-12-07T13:00:17;6.60;1.00
14053;DHT22;7101;51.600;7.310;2022-12-07T13:02:48;6.50;1.00
14053;DHT22;7101;51.600;7.310;2022-12-07T13:05:19;6.60;1.00
14053;DHT22;7101;51.600;7.310;2022-12-07T13:08:01;6.50;1.00
14053;DHT22;7101;51.600;7.310;2022-12-07T13:10:45;6.50;1.00
14053;DHT22;7101;51.600;7.310;2022-12-07T13:13:33;6.50;1.00
14053;DHT22;7101;51.600;7.310;2022-12-07T13:22:46;6.50;1.00
14053;DHT22;7101;51.600;7.310;2022-12-07T13:25:45;6.50;1.00
14053;DHT22;7101;51.600;7.310;2022-12-07T13:28:17;6.50;1.00
14053;DHT22;7101;51.600;7.310;2022-12-07T13:31:12;6.50;1.00
14053;DHT22;7101;51.600;7.310;2022-12-07T13:33:43;6.50;1.00
14053;DHT22;7101;51.600;7.310;2022-12-07T13:36:21;6.40;1.00
14053;DHT22;7101;51.600;7.310;2022-12-07T13:38:51;6.40;1.00
14053;DHT22;7101;51.600;7.310;2022-12-07T13:41:21;6.30;1.00
14053;DHT22;7101;51.600;7.310;2022-12-07T13:43:55;6.20;1.00
14053;DHT22;7101;51.600;7.310;2022-12-07T13:46:32;6.30;1.00
14053;DHT22;7101;51.600;7.310;2022-12-07T13:49:02;6.30;1.00
14053;DHT22;7101;51.600;7.310;2022-12-07T13:51:42;6.20;1.00
14053;DHT22;7101;51.600;7.310;2022-12-07T13:54:11;6.10;1.00
14053;DHT22;7101;51.600;7.310;2022-12-07T13:56:40;6.10;1.00
14053;DHT22;7101;51.600;7.310;2022-12-07T13:59:13;6.00;1.00
14053;DHT22;7101;51.600;7.310;2022-12-07T14:01:40;6.00;1.00
14053;DHT22;7101;51.600;7.310;2022-12-07T14:04:33;6.00;1.00
14053;DHT22;7101;51.600;7.310;2022-12-07T14:07:19;5.90;1.00
14053;DHT22;7101;51.600;7.310;2022-12-07T14:09:54;5.80;1.00
14053;DHT22;7101;51.600;7.310;2022-12-07T14:12:24;5.80;1.00
14053;DHT22;7101;51.600;7.310;2022-12-07T14:14:53;5.70;1.00
14053;DHT22;7101;51.600;7.310;2022-12-07T14:17:21;5.60;1.00
14053;DHT22;7101;51.600;7.310;2022-12-07T14:19:51;5.60;1.00
14053;DHT22;7101;51.600;7.310;2022-12-07T14:22:27;5.50;1.00
14053;DHT22;7101;51.600;7.310;2022-12-07T14:27:59;5.50;1.00
14053;DHT22;7101;51.600;7.310;2022-12-07T14:30:28;5.40;1.00
14053;DHT22;7101;51.600;7.310;2022-12-07T14:32:59;5.40;1.00
14053;DHT22;7101;51.600;7.310;2022-12-07T14:35:27;5.30;1.00
14053;DHT22;7101;51.600;7.310;2022-12-07T14:37:55;5.20;1.00
14053;DHT22;7101;51.600;7.310;2022-12-07T14:40:24;5.10;1.00
14053;DHT22;7101;51.600;7.310;2022-12-07T14:42:55;5.10;1.00
14053;DHT22;7101;51.600;7.310;2022-12-07T14:45:25;5.10;1.00
14053;DHT22;7101;51.600;7.310;2022-12-07T14:47:52;4.90;1.00
14053;DHT22;7101;51.600;7.310;2022-12-07T14:50:20;4.90;1.00
14053;DHT22;7101;51.600;7.310;2022-12-07T14:52:50;4.80;1.00
14053;DHT22;7101;51.600;7.310;2022-12-07T14:55:23;4.70;19.60
14053;DHT22;7101;51.600;7.310;2022-12-07T14:57:50;4.60;25.70
14053;DHT22;7101;51.600;7.310;2022-12-07T15:00:18;4.60;42.20
14053;DHT22;7101;51.600;7.310;2022-12-07T15:02:50;4.50;52.60
14053;DHT22;7101;51.600;7.310;2022-12-07T15:05:18;4.40;59.30
14053;DHT22;7101;51.600;7.310;2022-12-07T15:07:46;4.40;67.60
14053;DHT22;7101;51.600;7.310;2022-12-07T15:10:19;4.30;84.90
14053;DHT22;7101;51.600;7.310;2022-12-07T15:12:47;4.30;88.20
14053;DHT22;7101;51.600;7.310;2022-12-07T15:15:15;4.20;93.20
14053;DHT22;7101;51.600;7.310;2022-12-07T15:17:43;4.20;99.90
14053;DHT22;7101;51.600;7.310;2022-12-07T15:20:13;4.20;99.90
14053;DHT22;7101;51.600;7.310;2022-12-07T15:22:43;4.10;99.90
14053;DHT22;7101;51.600;7.310;2022-12-07T15:25:13;4.10;99.90
14053;DHT22;7101;51.600;7.310;2022-12-07T15:27:41;4.10;99.90
14053;DHT22;7101;51.600;7.310;2022-12-07T15:30:08;4.00;99.90
14053;DHT22;7101;51.600;7.310;2022-12-07T15:32:36;4.00;99.90
14053;DHT22;7101;51.600;7.310;2022-12-07T15:35:03;4.00;99.90
14053;DHT22;7101;51.600;7.310;2022-12-07T15:37:31;4.00;99.90
14053;DHT22;7101;51.600;7.310;2022-12-07T15:39:59;4.00;99.90
14053;DHT22;7101;51.600;7.310;2022-12-07T15:42:27;4.10;99.90
14053;DHT22;7101;51.600;7.310;2022-12-07T15:44:54;4.10;99.90
14053;DHT22;7101;51.600;7.310;2022-12-07T15:47:30;4.00;99.90
14053;DHT22;7101;51.600;7.310;2022-12-07T15:49:57;4.00;99.90
14053;DHT22;7101;51.600;7.310;2022-12-07T15:52:24;4.00;99.90
14053;DHT22;7101;51.600;7.310;2022-12-07T15:54:52;4.00;99.90
14053;DHT22;7101;51.600;7.310;2022-12-07T15:57:20;4.00;99.90
14053;DHT22;7101;51.600;7.310;2022-12-07T15:59:47;4.00;99.90
14053;DHT22;7101;51.600;7.310;2022-12-07T16:02:15;4.00;99.90
14053;DHT22;7101;51.600;7.310;2022-12-07T16:04:42;4.10;99.90
14053;DHT22;7101;51.600;7.310;2022-12-07T16:07:09;4.10;99.90
14053;DHT22;7101;51.600;7.310;2022-12-07T16:09:37;4.20;99.90
14053;DHT22;7101;51.600;7.310;2022-12-07T16:12:06;4.20;99.90
14053;DHT22;7101;51.600;7.310;2022-12-07T16:14:33;4.20;99.90
14053;DHT22;7101;51.600;7.310;2022-12-07T16:16:59;4.30;99.90
14053;DHT22;7101;51.600;7.310;2022-12-07T16:19:26;4.40;99.90
14053;DHT22;7101;51.600;7.310;2022-12-07T16:21:53;4.30;99.90
14053;DHT22;7101;51.600;7.310;2022-12-07T16:24:20;4.40;99.90
14053;DHT22;7101;51.600;7.310;2022-12-07T16:26:48;4.50;99.90
14053;DHT22;7101;51.600;7.310;2022-12-07T16:29:19;4.50;99.90
14053;DHT22;7101;51.600;7.310;2022-12-07T16:31:47;4.50;99.90
14053;DHT22;7101;51.600;7.310;2022-12-07T16:34:16;4.40;99.90
14053;DHT22;7101;51.600;7.310;2022-12-07T16:36:42;4.40;99.90
14053;DHT22;7101;51.600;7.310;2022-12-07T16:39:10;4.40;99.90
14053;DHT22;7101;51.600;7.310;2022-12-07T16:41:36;4.50;99.90
14053;DHT22;7101;51.600;7.310;2022-12-07T16:44:07;4.60;99.90
14053;DHT22;7101;51.600;7.310;2022-12-07T16:46:36;4.60;99.90
14053;DHT22;7101;51.600;7.310;2022-12-07T16:49:03;4.70;99.90
14053;DHT22;7101;51.600;7.310;2022-12-07T16:51:31;4.60;99.90
14053;DHT22;7101;51.600;7.310;2022-12-07T16:54:00;4.70;99.90
14053;DHT22;7101;51.600;7.310;2022-12-07T16:56:26;4.60;99.90
14053;DHT22;7101;51.600;7.310;2022-12-07T16:58:54;4.70;99.90